KSLE/SLE METAR and TAF weather

Enter ICAO airport designator
Station Type Date Time Source
KSLE METAR 2020/11/27 13:56 UTC NOAA

KSLE 271356Z AUTO 19006KT 3SM BR OVC004 M01/M02 A3035 RMK AO2 SLP278 I1001 T10061017


Station Type Date Time Source
KSLE Decoded METAR 2020/11/27 13:56 UTC NOAA

SALEM MCNARY FIELD, OR, United States (KSLE) 44-54N 123-00W 59M
Nov 27, 2020 - 08:56 AM EST / 2020.11.27 1356 UTC
Wind: from the S (190 degrees) at 7 MPH (6 KT):0
Visibility: 3 mile(s):0
Sky conditions: overcast
Weather: mist
Temperature: 30.9 F (-0.6 C)
Windchill: 24 F (-4 C):1
Dew Point: 28.9 F (-1.7 C)
Relative Humidity: 92%
Pressure (altimeter): 30.35 in. Hg (1027 hPa)
ob: KSLE 271356Z AUTO 19006KT 3SM BR OVC004 M01/M02 A3035 RMK AO2 SLP278 I1001 T10061017
cycle: 14

Station Type Date Time Source
KSLE TAF 2020/11/27 14:58 UTC NOAA

TAF
AMD KSLE 271355Z 2714/2812 00000KT 2SM BR BKN002
TEMPO 2714/2717 1/2SM FG VV002
FM271800 00000KT 5SM BR OVC045
FM271900 00000KT P6SM OVC150
FM281000 VRB03KT 5SM BR OVC026

Example: see airport list